createdAt,value
2018-06-07T00:01:50.802Z,18.85
2018-06-07T00:04:21.473Z,18.84
2018-06-07T00:06:52.068Z,18.94
2018-06-07T00:09:23.624Z,18.74
2018-06-07T00:11:53.821Z,18.68
2018-06-07T00:14:23.045Z,18.62
2018-06-07T00:16:56.486Z,18.62
2018-06-07T00:19:30.562Z,18.59
2018-06-07T00:22:00.503Z,18.61
2018-06-07T00:24:31.545Z,18.60
2018-06-07T00:27:01.441Z,18.65
2018-06-07T00:29:31.695Z,18.70
2018-06-07T00:32:05.126Z,18.52
2018-06-07T00:34:35.928Z,18.51
2018-06-07T00:37:05.670Z,18.64
2018-06-07T00:39:35.475Z,18.74
2018-06-07T00:42:05.305Z,18.72
2018-06-07T00:44:36.731Z,18.69
2018-06-07T00:47:06.118Z,18.66
2018-06-07T00:49:37.172Z,18.68
2018-06-07T00:52:07.375Z,18.73
2018-06-07T00:54:40.892Z,18.79
2018-06-07T00:57:10.598Z,18.83
2018-06-07T00:59:40.110Z,18.84
2018-06-07T01:02:10.007Z,18.93
2018-06-07T01:04:40.289Z,18.94
2018-06-07T01:07:10.920Z,18.97
2018-06-07T01:09:41.390Z,18.98
2018-06-07T01:12:10.389Z,18.80
2018-06-07T01:14:41.197Z,18.79
2018-06-07T01:17:11.800Z,18.89
2018-06-07T01:19:41.157Z,18.92
2018-06-07T01:22:13.007Z,18.85
2018-06-07T01:24:43.088Z,18.94
2018-06-07T01:27:16.533Z,19.05
2018-06-07T01:29:57.828Z,19.04
2018-06-07T01:32:53.732Z,19.08
2018-06-07T01:35:24.362Z,19.10
2018-06-07T01:39:11.592Z,19.11
2018-06-07T01:41:41.680Z,19.16
2018-06-07T01:44:13.741Z,19.13
2018-06-07T01:46:44.166Z,19.09
2018-06-07T01:49:16.029Z,19.04
2018-06-07T01:51:45.257Z,18.95
2018-06-07T01:54:15.317Z,18.96
2018-06-07T01:56:46.155Z,18.91
2018-06-07T01:59:15.670Z,18.89
2018-06-07T02:01:46.379Z,18.91
2018-06-07T02:04:15.508Z,18.90
2018-06-07T02:06:45.760Z,18.95
2018-06-07T02:09:16.333Z,18.87
2018-06-07T02:11:45.849Z,18.84
2018-06-07T02:14:15.298Z,18.86
2018-06-07T02:16:45.552Z,18.77
2018-06-07T02:19:14.812Z,18.72
2018-06-07T02:21:43.847Z,18.71
2018-06-07T02:24:13.201Z,18.63
2018-06-07T02:26:42.882Z,18.61
2018-06-07T02:29:12.163Z,18.60
2018-06-07T02:31:41.943Z,18.59
2018-06-07T02:34:12.187Z,18.50
2018-06-07T02:36:41.438Z,18.52
2018-06-07T02:39:10.495Z,18.50
2018-06-07T02:41:42.569Z,18.48
2018-06-07T02:44:14.090Z,18.49
2018-06-07T02:46:43.912Z,18.44
2018-06-07T02:49:13.165Z,18.42
2018-06-07T02:51:44.660Z,18.41
2018-06-07T02:54:14.558Z,18.50
2018-06-07T02:56:44.013Z,18.47
2018-06-07T02:59:13.784Z,18.48
2018-06-07T03:01:43.341Z,18.52
2018-06-07T03:04:13.130Z,18.54
2018-06-07T03:06:42.340Z,18.58
2018-06-07T03:09:13.146Z,18.57
2018-06-07T03:11:42.397Z,18.60
2018-06-07T03:14:23.954Z,18.60
2018-06-07T03:16:53.985Z,18.66
2018-06-07T03:19:23.862Z,18.72
2018-06-07T03:21:54.624Z,18.77
2018-06-07T03:24:25.104Z,18.76
2018-06-07T03:26:55.021Z,18.78
2018-06-07T03:29:24.914Z,18.82
2018-06-07T03:31:54.756Z,18.80
2018-06-07T03:34:26.528Z,18.82
2018-06-07T03:36:56.603Z,18.87
2018-06-07T03:39:25.958Z,18.90
2018-06-07T03:41:56.473Z,18.90
2018-06-07T03:44:26.393Z,18.85
2018-06-07T03:46:56.457Z,18.91
2018-06-07T03:49:25.425Z,18.92
2018-06-07T03:51:54.641Z,18.90
2018-06-07T03:54:23.812Z,18.96
2018-06-07T03:56:54.963Z,18.93
2018-06-07T03:59:24.656Z,18.98
2018-06-07T04:01:54.677Z,18.93
2018-06-07T04:04:25.498Z,19.00
2018-06-07T04:06:55.149Z,19.05
2018-06-07T04:09:24.835Z,19.08
2018-06-07T04:11:57.851Z,19.12
2018-06-07T04:14:30.410Z,19.13
2018-06-07T04:16:59.610Z,19.10
2018-06-07T04:19:29.628Z,19.09
2018-06-07T04:21:58.985Z,19.12
2018-06-07T04:24:28.031Z,19.16
2018-06-07T04:26:58.124Z,19.22
2018-06-07T04:29:27.647Z,19.22
2018-06-07T04:31:56.479Z,19.29
2018-06-07T04:34:25.365Z,19.34
2018-06-07T04:36:58.089Z,19.16
2018-06-07T04:39:27.396Z,19.12
2018-06-07T04:41:59.228Z,19.08
2018-06-07T04:44:30.321Z,19.07
2018-06-07T04:46:59.137Z,19.14
2018-06-07T04:49:29.993Z,19.13
2018-06-07T04:51:58.911Z,19.19
2018-06-07T04:54:27.708Z,19.28
2018-06-07T04:56:56.918Z,19.31
2018-06-07T04:59:27.460Z,19.24
2018-06-07T05:01:56.372Z,19.27
2018-06-07T05:04:26.947Z,19.26
2018-06-07T05:06:56.546Z,19.27
2018-06-07T05:09:26.766Z,19.14
2018-06-07T05:11:56.664Z,19.18
2018-06-07T05:14:26.244Z,19.21
2018-06-07T05:16:55.355Z,19.29
2018-06-07T05:19:24.235Z,19.31
2018-06-07T05:21:54.291Z,19.35
2018-06-07T05:24:23.225Z,19.37
2018-06-07T05:26:52.423Z,19.39
2018-06-07T05:29:21.829Z,19.33
2018-06-07T05:31:51.554Z,19.36
2018-06-07T05:34:20.357Z,19.38
2018-06-07T05:36:49.305Z,19.42
2018-06-07T05:39:18.094Z,19.47
2018-06-07T05:41:47.034Z,19.47
2018-06-07T05:44:16.912Z,19.48
2018-06-07T05:46:46.173Z,19.46
2018-06-07T05:49:16.753Z,19.52
2018-06-07T05:51:46.022Z,19.52
2018-06-07T05:54:17.362Z,19.50
2018-06-07T05:56:46.578Z,19.56
2018-06-07T05:59:15.841Z,19.57
2018-06-07T06:01:45.853Z,19.63
2018-06-07T06:04:15.394Z,19.64
2018-06-07T06:06:44.276Z,19.69
2018-06-07T06:09:13.844Z,19.72
2018-06-07T06:11:45.784Z,19.75
2018-06-07T06:14:15.884Z,19.77
2018-06-07T06:16:45.227Z,19.82
2018-06-07T06:19:14.907Z,19.82
2018-06-07T06:21:44.754Z,19.92
2018-06-07T06:24:13.975Z,19.88
2018-06-07T06:26:43.008Z,19.92
2018-06-07T06:29:12.849Z,19.90
2018-06-07T06:31:42.439Z,19.86
2018-06-07T06:34:13.081Z,19.92
2018-06-07T06:36:43.113Z,19.98
2018-06-07T06:39:12.200Z,20.05
2018-06-07T06:41:41.821Z,20.06
2018-06-07T06:44:10.892Z,20.06
2018-06-07T06:46:39.787Z,20.03
2018-06-07T06:49:08.963Z,20.06
2018-06-07T06:51:40.905Z,20.08
2018-06-07T06:54:11.240Z,20.12
2018-06-07T06:56:42.164Z,20.07
2018-06-07T06:59:10.980Z,20.07
2018-06-07T07:01:40.254Z,20.12
2018-06-07T07:04:09.612Z,20.20
2018-06-07T07:06:38.806Z,20.26
2018-06-07T07:09:09.784Z,20.25
2018-06-07T07:11:38.843Z,20.31
2018-06-07T07:14:09.009Z,20.35
2018-06-07T07:16:38.474Z,20.40
2018-06-07T07:19:08.584Z,20.36
2018-06-07T07:21:40.124Z,20.29
2018-06-07T07:24:11.745Z,20.14
2018-06-07T07:26:42.215Z,20.22
2018-06-07T07:29:14.230Z,20.25
2018-06-07T07:31:43.185Z,20.17
2018-06-07T07:34:12.959Z,20.20
2018-06-07T07:36:42.806Z,20.14
2018-06-07T07:39:13.870Z,20.22
2018-06-07T07:41:44.963Z,20.35
2018-06-07T07:44:14.127Z,20.39
2018-06-07T07:46:44.140Z,20.43
2018-06-07T07:49:13.314Z,20.50
2018-06-07T07:51:42.526Z,20.55
2018-06-07T07:54:13.903Z,20.51
2018-06-07T07:56:44.236Z,20.63
2018-06-07T07:59:14.425Z,20.75
2018-06-07T08:01:44.730Z,20.88
2018-06-07T08:04:16.053Z,20.99
2018-06-07T08:06:47.693Z,21.01
2018-06-07T08:09:19.442Z,21.04
2018-06-07T08:11:52.475Z,21.11
2018-06-07T08:14:22.843Z,21.20
2018-06-07T08:16:53.956Z,21.27
2018-06-07T08:19:24.079Z,20.96
2018-06-07T08:21:54.157Z,21.05
2018-06-07T08:24:28.656Z,21.08
2018-06-07T08:26:59.504Z,20.62
2018-06-07T08:29:29.273Z,20.92
2018-06-07T08:31:58.341Z,21.14
2018-06-07T08:34:28.298Z,20.93
2018-06-07T08:36:59.578Z,21.41
2018-06-07T08:39:38.434Z,21.14
2018-06-07T08:42:13.265Z,21.76
2018-06-07T08:44:44.225Z,22.16
2018-06-07T08:47:24.490Z,22.06
2018-06-07T08:49:59.160Z,22.30
2018-06-07T08:52:30.584Z,22.32
2018-06-07T08:55:09.913Z,22.52
2018-06-07T09:00:36.153Z,22.88
2018-06-07T09:03:25.247Z,22.89
2018-06-07T09:06:02.452Z,23.14
2018-06-07T09:08:32.326Z,23.23
2018-06-07T09:11:03.164Z,23.53
2018-06-07T09:13:43.268Z,23.63
2018-06-07T09:16:15.296Z,23.37
2018-06-07T09:21:47.924Z,23.87
2018-06-07T09:24:20.274Z,24.09
2018-06-07T09:27:09.677Z,24.28
2018-06-07T09:29:47.507Z,24.38
2018-06-07T09:32:18.805Z,24.44
2018-06-07T09:34:56.389Z,24.60
2018-06-07T09:37:33.319Z,24.80
2018-06-07T09:40:08.870Z,24.85
2018-06-07T09:43:07.442Z,24.84
2018-06-07T09:45:51.432Z,24.90
2018-06-07T09:48:31.951Z,23.73
2018-06-07T09:54:28.084Z,23.64
2018-06-07T09:57:00.228Z,24.20
2018-06-07T09:59:36.904Z,24.58
2018-06-07T10:02:09.464Z,24.84
2018-06-07T10:05:10.341Z,24.53
2018-06-07T10:07:49.070Z,24.58
2018-06-07T10:16:54.117Z,24.87
2018-06-07T10:19:30.521Z,25.15
2018-06-07T10:22:52.893Z,25.24
2018-06-07T10:48:03.259Z,24.49
2018-06-07T10:51:06.228Z,24.32
2018-06-07T10:53:48.358Z,23.81
2018-06-07T10:56:33.249Z,23.94
2018-06-07T10:59:52.880Z,24.19
2018-06-07T11:05:47.133Z,24.00
2018-06-07T11:09:13.050Z,24.44
2018-06-07T11:12:20.637Z,23.90
2018-06-07T11:15:18.995Z,23.99
2018-06-07T11:21:02.571Z,24.37
2018-06-07T11:26:54.701Z,23.77
2018-06-07T11:32:53.086Z,23.59
2018-06-07T11:35:53.213Z,24.07
2018-06-07T11:40:15.576Z,24.50
2018-06-07T11:42:54.783Z,24.88
2018-06-07T11:45:44.183Z,25.04
2018-06-07T11:52:10.597Z,25.21
2018-06-07T11:55:08.109Z,25.37
2018-06-07T12:01:36.141Z,25.27
2018-06-07T12:07:41.209Z,25.36
2018-06-07T12:11:10.763Z,25.33
2018-06-07T12:13:54.477Z,25.27
2018-06-07T12:18:57.842Z,25.25
2018-06-07T12:44:43.618Z,24.95
2018-06-07T12:57:16.532Z,25.53
2018-06-07T13:10:05.481Z,25.27
2018-06-07T13:20:38.672Z,25.26
2018-06-07T13:23:49.703Z,25.33
2018-06-07T13:44:56.352Z,25.07
2018-06-07T13:55:09.701Z,25.42
2018-06-07T14:06:03.154Z,25.78
2018-06-07T14:51:48.068Z,24.79
2018-06-07T15:51:43.181Z,24.16
2018-06-07T16:11:35.009Z,24.46
2018-06-07T20:45:15.404Z,21.47
2018-06-07T21:39:41.669Z,20.94
2018-06-07T21:52:25.367Z,20.87
2018-06-07T21:55:22.041Z,20.81
2018-06-07T21:58:11.210Z,20.79
2018-06-07T22:04:03.193Z,20.84
2018-06-07T22:10:18.085Z,20.82
2018-06-07T22:13:17.236Z,20.80
2018-06-07T22:16:47.163Z,20.75
2018-06-07T22:22:38.416Z,20.65
2018-06-07T22:25:34.927Z,20.61
2018-06-07T22:29:08.459Z,20.57
2018-06-07T22:31:53.978Z,20.52
2018-06-07T22:35:06.502Z,20.56
2018-06-07T22:38:20.207Z,20.60
2018-06-07T22:41:07.770Z,20.55
2018-06-07T22:44:03.614Z,20.51
2018-06-07T22:47:14.680Z,20.44
2018-06-07T22:54:20.612Z,20.45
2018-06-07T23:02:30.285Z,20.25
2018-06-07T23:07:01.054Z,20.28
2018-06-07T23:18:41.181Z,20.08
2018-06-07T23:21:58.091Z,20.11
2018-06-07T23:25:30.436Z,20.09
2018-06-07T23:28:47.738Z,20.14
2018-06-07T23:35:03.909Z,20.18
2018-06-07T23:41:11.740Z,20.16
2018-06-07T23:53:39.919Z,19.86
